map of FRM home
FRM - Airport
Location
City:  Fairmont, Minnesota, United States
Name:Fairmont Municipal Airport
ICAO:KFRM
IATA:FRM
FAA LID:FRM

Details
Type:Airport (Airfield)
Use:Public/Civil
Latitude:4338'38"N (43.643944)
Longitude:9424'56"W (-94.415610)
Datum:WGS 1984
Elevation:1161 ft (354 m)
Variation:1.24E (WMM2015v2 magnetic declination)
-0.06 annual change
Runways:2
Longest:5503 × 100 ft (1677 × 30.5 m), paved

Time
Time Zone:UTC-6 (DST-5)
Local Time:

Weather
METAR:KFRM 041356Z AUTO 31021G32KT 6SM BR FEW019 OVC028 M15/M17 A2984 RMK AO2 PK WND 30033/1257 SNB03E49 SLP132 P0000 T11501167 FZRANO

Related Locations
Nearby:
Farthest:YAUG: 10735 mi / 17276 km
Augusta [Augusta Airport], WA, AU

Find:

   beyond  
but within

Other Information
Maps:
NOTAMs:
Links:
Sources:

  
  • flag of United States
  • flag of Minnesota
  

Sectional Chart

Flight Planning
at skyvector.com

Satellite Image

Google Maps Satellite view

 

Copyright © 2004-2019 Karl L. Swartz. All rights reserved.
The Great Circle Mapper name and logo are trademarks of the Great Circle Mapper.
All other trademarks mentioned herein belong to their respective owners.
Please see credits for attibutions and further copyright information.

  Follow gcmap on Facebook Follow gcmap on Twitter GCmap on LinkedIn

hCard Microformat

Geo Microformat